createdAt,value
2019-02-20T10:42:46.508Z,24.30
2019-02-20T10:48:29.080Z,22.13
2019-02-20T10:50:55.192Z,19.70
2019-02-20T10:53:24.308Z,17.40
2019-02-20T10:55:53.133Z,18.00
2019-02-20T10:58:22.171Z,18.03
2019-02-20T11:00:58.786Z,14.13
2019-02-20T11:30:03.290Z,16.47
2019-02-20T11:36:11.756Z,15.70
2019-02-20T11:38:48.936Z,17.37
2019-02-20T11:41:17.836Z,15.00
2019-02-20T11:43:57.127Z,16.33
2019-02-20T11:46:26.042Z,18.13
2019-02-20T11:49:00.382Z,17.17
2019-02-20T11:51:30.720Z,14.67
2019-02-20T11:54:00.241Z,14.03
2019-02-20T11:56:30.588Z,13.50
2019-02-20T12:02:42.265Z,14.10
2019-02-20T12:08:27.537Z,14.60
2019-02-20T12:23:12.996Z,15.90
2019-02-20T12:25:43.729Z,16.07
2019-02-20T12:28:15.972Z,15.53
2019-02-20T12:48:06.505Z,16.50
2019-02-20T12:50:33.397Z,17.23
2019-02-20T12:53:02.793Z,17.73
2019-02-20T12:55:42.529Z,16.97
2019-02-20T13:07:41.790Z,15.37
2019-02-20T13:10:10.645Z,16.17
2019-02-20T13:12:39.433Z,17.30
2019-02-20T13:15:08.295Z,16.87
2019-02-20T13:17:37.085Z,17.50
2019-02-20T13:20:05.886Z,17.97
2019-02-20T13:22:43.021Z,16.80
2019-02-20T13:25:10.189Z,17.17
2019-02-20T13:27:40.249Z,17.93
2019-02-20T13:30:09.423Z,18.70
2019-02-20T13:32:43.463Z,16.63
2019-02-20T13:35:12.674Z,16.60
2019-02-20T13:37:41.403Z,17.40
2019-02-20T13:40:10.297Z,17.17
2019-02-20T13:42:42.835Z,17.70
2019-02-20T13:45:16.170Z,18.20
2019-02-20T13:47:45.506Z,18.10
2019-02-20T13:50:14.645Z,16.60
2019-02-20T13:52:51.985Z,16.70
2019-02-20T13:55:22.996Z,15.77
2019-02-20T13:57:51.757Z,14.77
2019-02-20T14:00:31.190Z,14.50
2019-02-20T14:03:03.501Z,15.97
2019-02-20T14:05:34.257Z,15.17
2019-02-20T14:08:08.743Z,15.07
2019-02-20T14:10:41.278Z,14.90
2019-02-20T14:13:30.745Z,15.30
2019-02-20T14:16:01.799Z,14.90
2019-02-20T14:45:11.555Z,14.67
2019-02-20T14:48:17.351Z,13.83
2019-02-20T14:51:08.402Z,14.63
2019-02-20T14:53:43.778Z,13.57
2019-02-20T14:59:20.749Z,15.53
2019-02-20T15:01:49.874Z,14.97
2019-02-20T15:04:21.305Z,15.63
2019-02-20T15:06:52.129Z,14.33
2019-02-20T15:09:21.052Z,15.10
2019-02-20T15:11:52.724Z,15.70
2019-02-20T15:14:24.622Z,14.30
2019-02-20T15:20:20.852Z,13.87
2019-02-20T15:22:51.666Z,14.03
2019-02-20T15:28:39.068Z,15.30
2019-02-20T15:31:10.778Z,13.93
2019-02-20T15:33:46.368Z,19.73
2019-02-20T15:36:15.205Z,20.90
2019-02-20T15:38:46.031Z,24.10
